createdAt,value
2023-02-28T00:00:22.602Z,0.94
2023-02-28T00:01:22.574Z,0.92
2023-02-28T00:02:22.656Z,0.94
2023-02-28T00:03:22.584Z,0.94
2023-02-28T00:04:22.561Z,0.90
2023-02-28T00:05:22.559Z,0.86
2023-02-28T00:06:23.493Z,0.86
2023-02-28T00:07:22.589Z,0.89
2023-02-28T00:08:22.566Z,0.88
2023-02-28T00:09:22.529Z,0.86
2023-02-28T00:10:22.510Z,0.86
2023-02-28T00:11:22.485Z,0.86
2023-02-28T00:12:22.488Z,0.83
2023-02-28T00:13:22.475Z,0.83
2023-02-28T00:14:22.497Z,0.80
2023-02-28T00:15:22.430Z,0.80
2023-02-28T00:16:22.558Z,0.78
2023-02-28T00:17:22.416Z,0.79
2023-02-28T00:18:22.398Z,0.79
2023-02-28T00:19:22.378Z,0.78
2023-02-28T00:20:22.402Z,0.80
2023-02-28T00:21:22.368Z,0.78
2023-02-28T00:22:22.416Z,0.78
2023-02-28T00:23:22.341Z,0.78
2023-02-28T00:24:22.379Z,0.76
2023-02-28T00:25:22.321Z,0.75
2023-02-28T00:26:22.400Z,0.76
2023-02-28T00:27:22.307Z,0.75
2023-02-28T00:28:22.327Z,0.72
2023-02-28T00:29:22.262Z,0.70
2023-02-28T00:30:22.286Z,0.70
2023-02-28T00:31:22.269Z,0.70
2023-02-28T00:32:22.294Z,0.70
2023-02-28T00:33:22.222Z,0.68
2023-02-28T00:34:22.237Z,0.67
2023-02-28T00:35:22.267Z,0.65
2023-02-28T00:36:22.526Z,0.64
2023-02-28T00:37:22.183Z,0.62
2023-02-28T00:38:23.137Z,0.62
2023-02-28T00:39:22.187Z,0.60
2023-02-28T00:40:22.194Z,0.53
2023-02-28T00:41:22.240Z,0.52
2023-02-28T00:42:22.188Z,0.53
2023-02-28T00:43:22.097Z,0.57
2023-02-28T00:44:22.162Z,0.52
2023-02-28T00:45:22.108Z,0.52
2023-02-28T00:46:22.168Z,0.51
2023-02-28T00:47:22.074Z,0.51
2023-02-28T00:48:22.103Z,0.51
2023-02-28T00:49:22.064Z,0.52
2023-02-28T00:50:22.100Z,0.53
2023-02-28T00:51:22.289Z,0.53
2023-02-28T00:52:34.227Z,0.57
2023-02-28T00:53:22.990Z,0.57
2023-02-28T00:54:22.074Z,0.51
2023-02-28T00:55:22.019Z,0.51
2023-02-28T00:56:22.012Z,0.49
2023-02-28T00:57:21.977Z,0.49
2023-02-28T00:58:22.003Z,0.48
2023-02-28T00:59:21.951Z,0.49
2023-02-28T01:00:22.024Z,0.46
2023-02-28T01:01:21.921Z,0.46
2023-02-28T01:02:21.997Z,0.43
2023-02-28T01:03:21.913Z,0.45
2023-02-28T01:04:22.018Z,0.46
2023-02-28T01:05:21.990Z,0.48
2023-02-28T01:06:21.988Z,0.45
2023-02-28T01:07:21.843Z,0.41
2023-02-28T01:08:22.867Z,0.30
2023-02-28T01:09:21.856Z,0.24
2023-02-28T01:10:21.846Z,0.20
2023-02-28T01:11:21.847Z,0.15
2023-02-28T01:12:21.811Z,0.13
2023-02-28T01:13:21.817Z,0.09
2023-02-28T01:14:21.807Z,0.09
2023-02-28T01:15:21.788Z,0.06
2023-02-28T01:16:21.789Z,0.07
2023-02-28T01:17:21.820Z,0.03
2023-02-28T01:18:21.761Z,0.03
2023-02-28T01:19:21.731Z,0.00
2023-02-28T01:20:21.723Z,0.03
2023-02-28T01:21:21.684Z,0.03
2023-02-28T01:22:21.756Z,0.03
2023-02-28T01:23:21.714Z,0.03
2023-02-28T01:24:21.712Z,0.03
2023-02-28T01:25:21.715Z,0.05
2023-02-28T01:26:21.664Z,0.03
2023-02-28T01:27:21.681Z,0.03
2023-02-28T01:28:21.694Z,0.00
2023-02-28T01:29:21.665Z,0.00
2023-02-28T01:30:21.629Z,0.00
2023-02-28T01:31:21.922Z,0.00
2023-02-28T01:32:22.641Z,0.06
2023-02-28T01:33:22.557Z,0.09
2023-02-28T01:34:21.581Z,0.15
2023-02-28T01:35:21.564Z,0.23
2023-02-28T01:36:21.563Z,0.27
2023-02-28T01:37:21.512Z,0.34
2023-02-28T01:38:23.510Z,0.38
2023-02-28T01:39:21.508Z,0.36
2023-02-28T01:40:21.576Z,0.36
2023-02-28T01:41:21.488Z,0.39
2023-02-28T01:42:21.488Z,0.41
2023-02-28T01:43:21.505Z,0.42
2023-02-28T01:44:21.501Z,0.39
2023-02-28T01:45:21.428Z,0.38
2023-02-28T01:46:21.571Z,0.39
2023-02-28T01:47:21.390Z,0.41
2023-02-28T01:48:21.413Z,0.41
2023-02-28T01:49:21.437Z,0.42
2023-02-28T01:50:21.412Z,0.38
2023-02-28T01:51:21.417Z,0.34
2023-02-28T01:52:21.380Z,0.34
2023-02-28T01:53:21.399Z,0.30
2023-02-28T01:54:21.369Z,0.28
2023-02-28T01:55:21.353Z,0.30
2023-02-28T01:56:21.423Z,0.30
2023-02-28T01:57:21.322Z,0.30
2023-02-28T01:58:21.324Z,0.28
2023-02-28T01:59:21.261Z,0.30
2023-02-28T02:00:22.075Z,0.31
2023-02-28T02:01:22.776Z,0.36
2023-02-28T02:02:22.310Z,0.39
2023-02-28T02:03:29.953Z,0.42
2023-02-28T02:04:22.183Z,0.46
2023-02-28T02:05:22.152Z,0.45
2023-02-28T02:06:21.240Z,0.46
2023-02-28T02:07:21.194Z,0.48
2023-02-28T02:08:21.183Z,0.51
2023-02-28T02:09:21.153Z,0.51
2023-02-28T02:10:21.214Z,0.57
2023-02-28T02:11:21.135Z,0.60
2023-02-28T02:12:21.154Z,0.60
2023-02-28T02:13:21.113Z,0.62
2023-02-28T02:14:21.129Z,0.62
2023-02-28T02:15:21.094Z,0.64
2023-02-28T02:16:21.195Z,0.65
2023-02-28T02:17:21.097Z,0.68
2023-02-28T02:18:21.092Z,0.68
2023-02-28T02:19:21.045Z,0.68
2023-02-28T02:20:21.059Z,0.65
2023-02-28T02:21:21.028Z,0.65
2023-02-28T02:22:21.056Z,0.64
2023-02-28T02:23:21.018Z,0.64
2023-02-28T02:24:21.020Z,0.62
2023-02-28T02:25:20.985Z,0.62
2023-02-28T02:26:21.010Z,0.62
2023-02-28T02:27:20.979Z,0.60
2023-02-28T02:28:20.968Z,0.57
2023-02-28T02:29:20.950Z,0.57
2023-02-28T02:30:20.977Z,0.52
2023-02-28T02:31:20.958Z,0.51
2023-02-28T02:32:21.013Z,0.49
2023-02-28T02:33:20.916Z,0.49
2023-02-28T02:34:20.913Z,0.49
2023-02-28T02:35:20.884Z,0.49
2023-02-28T02:36:20.910Z,0.51
2023-02-28T02:37:20.843Z,0.53
2023-02-28T02:38:20.878Z,0.57
2023-02-28T02:39:20.830Z,0.58
2023-02-28T02:40:20.864Z,0.58
2023-02-28T02:41:20.823Z,0.60
2023-02-28T02:42:20.845Z,0.62
2023-02-28T02:43:20.807Z,0.62
2023-02-28T02:44:20.804Z,0.65
2023-02-28T02:45:20.795Z,0.65
2023-02-28T02:46:20.822Z,0.65
2023-02-28T02:47:20.778Z,0.65
2023-02-28T02:48:20.822Z,0.65
2023-02-28T02:49:20.728Z,0.61
2023-02-28T02:50:20.742Z,0.62
2023-02-28T02:51:20.703Z,0.61
2023-02-28T02:52:20.724Z,0.65
2023-02-28T02:53:20.674Z,0.67
2023-02-28T02:54:20.711Z,0.65
2023-02-28T02:55:20.667Z,0.67
2023-02-28T02:56:20.774Z,0.67
2023-02-28T02:57:20.675Z,0.68
2023-02-28T02:58:20.674Z,0.71
2023-02-28T02:59:20.621Z,0.67
2023-02-28T03:00:20.644Z,0.68
2023-02-28T03:01:20.594Z,0.67
2023-02-28T03:02:20.750Z,0.65
2023-02-28T03:03:20.585Z,0.64
2023-02-28T03:04:20.580Z,0.64
2023-02-28T03:05:20.556Z,0.62
2023-02-28T03:06:20.569Z,0.62
2023-02-28T03:07:20.564Z,0.61
2023-02-28T03:08:20.556Z,0.62
2023-02-28T03:09:20.497Z,0.61
2023-02-28T03:10:20.508Z,0.64
2023-02-28T03:11:20.493Z,0.64
2023-02-28T03:12:20.508Z,0.62
2023-02-28T03:13:21.440Z,0.64
2023-02-28T03:14:21.465Z,0.64
2023-02-28T03:15:21.395Z,0.65
2023-02-28T03:16:21.526Z,0.65
2023-02-28T03:17:20.417Z,0.64
2023-02-28T03:18:20.439Z,0.62
2023-02-28T03:19:20.401Z,0.64
2023-02-28T03:20:20.419Z,0.61
2023-02-28T03:21:20.390Z,0.60
2023-02-28T03:22:20.380Z,0.60
2023-02-28T03:23:20.364Z,0.60
2023-02-28T03:24:20.373Z,0.57
2023-02-28T03:25:20.324Z,0.57
2023-02-28T03:26:20.368Z,0.58
2023-02-28T03:27:21.293Z,0.58
2023-02-28T03:28:20.323Z,0.60
2023-02-28T03:29:20.284Z,0.57
2023-02-28T03:30:20.274Z,0.53
2023-02-28T03:31:20.403Z,0.58
2023-02-28T03:32:20.293Z,0.57
2023-02-28T03:33:20.266Z,0.60
2023-02-28T03:34:20.247Z,0.60
2023-02-28T03:35:20.246Z,0.58
2023-02-28T03:36:20.229Z,0.53
2023-02-28T03:37:20.263Z,0.49
2023-02-28T03:38:20.215Z,0.46
2023-02-28T03:39:20.205Z,0.48
2023-02-28T03:40:20.177Z,0.46
2023-02-28T03:41:20.188Z,0.49
2023-02-28T03:42:20.160Z,0.51
2023-02-28T03:43:20.163Z,0.52
2023-02-28T03:44:20.129Z,0.53
2023-02-28T03:45:20.148Z,0.57
2023-02-28T03:46:20.162Z,0.57
2023-02-28T03:47:20.134Z,0.52
2023-02-28T03:48:20.088Z,0.52
2023-02-28T03:49:20.105Z,0.52
2023-02-28T03:50:20.062Z,0.51
2023-02-28T03:51:20.330Z,0.48
2023-02-28T03:52:20.032Z,0.46
2023-02-28T03:53:20.054Z,0.43
2023-02-28T03:54:20.047Z,0.42
2023-02-28T03:55:20.033Z,0.43
2023-02-28T03:56:20.007Z,0.42
2023-02-28T03:57:19.997Z,0.46
2023-02-28T03:58:19.978Z,0.48
2023-02-28T03:59:20.972Z,0.49
2023-02-28T04:00:19.955Z,0.57
2023-02-28T04:01:20.073Z,0.57
2023-02-28T04:02:19.943Z,0.58
2023-02-28T04:03:19.942Z,0.61
2023-02-28T04:04:19.920Z,0.62
2023-02-28T04:05:19.937Z,0.64
2023-02-28T04:06:20.855Z,0.64
2023-02-28T04:07:19.898Z,0.64
2023-02-28T04:08:19.889Z,0.65
2023-02-28T04:09:19.879Z,0.65
2023-02-28T04:10:19.864Z,0.61
2023-02-28T04:11:19.857Z,0.62
2023-02-28T04:12:19.837Z,0.61
2023-02-28T04:13:19.844Z,0.60
2023-02-28T04:14:20.769Z,0.58
2023-02-28T04:15:19.807Z,0.61
2023-02-28T04:16:33.818Z,0.61
2023-02-28T04:17:20.791Z,0.60
2023-02-28T04:18:19.747Z,0.61
2023-02-28T04:19:19.786Z,0.58
2023-02-28T04:20:19.736Z,0.60
2023-02-28T04:21:19.746Z,0.58
2023-02-28T04:22:19.708Z,0.58
2023-02-28T04:23:19.718Z,0.57
2023-02-28T04:24:19.718Z,0.58
2023-02-28T04:25:19.703Z,0.60
2023-02-28T04:26:19.684Z,0.60
2023-02-28T04:27:19.681Z,0.61
2023-02-28T04:28:19.643Z,0.61
2023-02-28T04:29:19.664Z,0.61
2023-02-28T04:30:19.623Z,0.61
2023-02-28T04:31:19.645Z,0.62
2023-02-28T04:32:19.728Z,0.64
2023-02-28T04:33:19.642Z,0.62
2023-02-28T04:34:19.591Z,0.62
2023-02-28T04:35:19.599Z,0.62
2023-02-28T04:36:19.557Z,0.64
2023-02-28T04:37:19.572Z,0.62
2023-02-28T04:38:19.545Z,0.60
2023-02-28T04:39:19.546Z,0.58
2023-02-28T04:40:19.529Z,0.57
2023-02-28T04:41:19.546Z,0.57
2023-02-28T04:42:19.508Z,0.57
2023-02-28T04:43:19.537Z,0.57
2023-02-28T04:44:19.476Z,0.57
2023-02-28T04:45:19.504Z,0.58
2023-02-28T04:46:19.454Z,0.60
2023-02-28T04:47:19.474Z,0.58
2023-02-28T04:48:21.942Z,0.60
2023-02-28T04:49:19.444Z,0.58
2023-02-28T04:50:19.396Z,0.57
2023-02-28T04:51:19.413Z,0.58
2023-02-28T04:52:19.381Z,0.62
2023-02-28T04:53:19.392Z,0.64
2023-02-28T04:54:19.351Z,0.68
2023-02-28T04:55:19.370Z,0.68
2023-02-28T04:56:19.370Z,0.68
2023-02-28T04:57:19.370Z,0.70
2023-02-28T04:58:19.311Z,0.75
2023-02-28T04:59:19.338Z,0.72
2023-02-28T05:00:19.311Z,0.72
2023-02-28T05:01:19.301Z,0.78
2023-02-28T05:02:19.299Z,0.79
2023-02-28T05:03:19.291Z,0.78
2023-02-28T05:04:19.244Z,0.79
2023-02-28T05:05:19.589Z,0.79
2023-02-28T05:06:19.223Z,0.79
2023-02-28T05:07:19.268Z,0.79
2023-02-28T05:08:19.195Z,0.79
2023-02-28T05:09:19.224Z,0.79
2023-02-28T05:10:19.176Z,0.80
2023-02-28T05:11:19.203Z,0.82
2023-02-28T05:12:20.131Z,0.80
2023-02-28T05:13:19.187Z,0.82
2023-02-28T05:14:19.145Z,0.80
2023-02-28T05:15:19.160Z,0.79
2023-02-28T05:16:19.181Z,0.78
2023-02-28T05:17:19.124Z,0.78
2023-02-28T05:18:19.097Z,0.79
2023-02-28T05:19:20.049Z,0.76
2023-02-28T05:20:20.308Z,0.80
2023-02-28T05:21:20.052Z,0.78
2023-02-28T05:22:19.093Z,0.80
2023-02-28T05:23:19.064Z,0.80
2023-02-28T05:24:19.056Z,0.79
2023-02-28T05:25:19.054Z,0.79
2023-02-28T05:26:19.032Z,0.78
2023-02-28T05:27:19.061Z,0.79
2023-02-28T05:28:18.992Z,0.78
2023-02-28T05:29:19.008Z,0.78
2023-02-28T05:30:18.972Z,0.76
2023-02-28T05:31:19.024Z,0.76
2023-02-28T05:32:19.010Z,0.78
2023-02-28T05:33:18.962Z,0.79
2023-02-28T05:34:20.882Z,0.82
2023-02-28T05:35:18.951Z,0.82
2023-02-28T05:36:18.907Z,0.83
2023-02-28T05:37:18.946Z,0.83
2023-02-28T05:38:18.880Z,0.82
2023-02-28T05:39:18.894Z,0.80
2023-02-28T05:40:18.859Z,0.78
2023-02-28T05:41:18.867Z,0.75
2023-02-28T05:42:18.837Z,0.71
2023-02-28T05:43:18.865Z,0.70
2023-02-28T05:44:18.816Z,0.68
2023-02-28T05:45:18.831Z,0.67
2023-02-28T05:46:18.814Z,0.67
2023-02-28T05:47:18.820Z,0.68
2023-02-28T05:48:18.760Z,0.65
2023-02-28T05:49:19.736Z,0.67
2023-02-28T05:50:19.688Z,0.70
2023-02-28T05:51:19.725Z,0.71
2023-02-28T05:52:19.669Z,0.71
2023-02-28T05:53:19.686Z,0.75
2023-02-28T05:54:18.720Z,0.75
2023-02-28T05:55:18.721Z,0.76
2023-02-28T05:56:18.696Z,0.76
2023-02-28T05:57:24.361Z,0.78
2023-02-28T05:58:19.658Z,0.76
2023-02-28T05:59:18.711Z,0.72
2023-02-28T06:00:18.642Z,0.76
2023-02-28T06:01:18.650Z,0.78
2023-02-28T06:02:18.673Z,0.76
2023-02-28T06:03:18.669Z,0.76
2023-02-28T06:04:30.739Z,0.80
2023-02-28T06:05:19.630Z,0.82
2023-02-28T06:06:18.577Z,0.83
2023-02-28T06:07:18.627Z,0.78
2023-02-28T06:08:18.586Z,0.76
2023-02-28T06:09:18.566Z,0.71
2023-02-28T06:10:18.561Z,0.68
2023-02-28T06:11:18.572Z,0.65
2023-02-28T06:12:18.540Z,0.61
2023-02-28T06:13:18.529Z,0.57
2023-02-28T06:14:18.503Z,0.58
2023-02-28T06:15:18.554Z,0.61
2023-02-28T06:16:18.526Z,0.62
2023-02-28T06:17:18.483Z,0.61
2023-02-28T06:18:19.400Z,0.62
2023-02-28T06:19:18.464Z,0.61
2023-02-28T06:20:18.507Z,0.65
2023-02-28T06:21:18.456Z,0.67
2023-02-28T06:22:18.421Z,0.67
2023-02-28T06:23:18.450Z,0.71
2023-02-28T06:24:18.400Z,0.72
2023-02-28T06:25:18.712Z,0.78
2023-02-28T06:26:18.401Z,0.78
2023-02-28T06:27:18.382Z,0.78
2023-02-28T06:28:18.373Z,0.79
2023-02-28T06:29:18.392Z,0.80
2023-02-28T06:30:18.317Z,0.80
2023-02-28T06:31:18.398Z,0.82
2023-02-28T06:32:18.357Z,0.83
2023-02-28T06:33:18.314Z,0.86
2023-02-28T06:34:18.285Z,0.88
2023-02-28T06:35:18.286Z,0.92
2023-02-28T06:36:18.248Z,0.96
2023-02-28T06:37:18.322Z,0.97
2023-02-28T06:38:18.238Z,1.00
2023-02-28T06:39:18.239Z,1.00
2023-02-28T06:40:18.217Z,1.01
2023-02-28T06:41:18.218Z,1.04
2023-02-28T06:42:18.473Z,1.06
2023-02-28T06:43:18.222Z,1.08
2023-02-28T06:44:18.175Z,1.08
2023-02-28T06:45:18.192Z,1.10
2023-02-28T06:46:18.192Z,1.10
2023-02-28T06:47:18.184Z,1.12
2023-02-28T06:48:18.134Z,1.12
2023-02-28T06:49:18.422Z,1.14
2023-02-28T06:50:18.106Z,1.15
2023-02-28T06:51:18.131Z,1.14
2023-02-28T06:52:18.101Z,1.14
2023-02-28T06:53:18.122Z,1.16
2023-02-28T06:54:18.053Z,1.16
2023-02-28T06:55:18.074Z,1.15
2023-02-28T06:56:18.039Z,1.16
2023-02-28T06:57:18.089Z,1.18
2023-02-28T06:58:18.040Z,1.16
2023-02-28T06:59:18.088Z,1.16
2023-02-28T07:00:18.013Z,1.16
2023-02-28T07:01:18.033Z,1.15
2023-02-28T07:02:17.983Z,1.12
2023-02-28T07:03:18.258Z,1.08
2023-02-28T07:04:17.974Z,1.08
2023-02-28T07:05:17.977Z,1.07
2023-02-28T07:06:17.922Z,1.06
2023-02-28T07:07:17.951Z,1.08
2023-02-28T07:08:17.920Z,1.08
2023-02-28T07:09:17.928Z,1.03
2023-02-28T07:10:20.185Z,1.01
2023-02-28T07:11:17.897Z,0.97
2023-02-28T07:12:17.887Z,0.98
2023-02-28T07:13:17.888Z,1.03
2023-02-28T07:14:17.846Z,1.06
2023-02-28T07:15:17.845Z,1.10
2023-02-28T07:16:17.834Z,1.14
2023-02-28T07:17:17.819Z,1.18
2023-02-28T07:18:17.887Z,1.19
2023-02-28T07:19:17.833Z,1.26
2023-02-28T07:20:17.791Z,1.33
2023-02-28T07:21:17.787Z,1.39
2023-02-28T07:22:17.753Z,1.42
2023-02-28T07:23:17.793Z,1.42
2023-02-28T07:24:17.729Z,1.46
2023-02-28T07:25:17.763Z,1.44
2023-02-28T07:26:17.693Z,1.46
2023-02-28T07:27:17.724Z,1.47
2023-02-28T07:28:17.691Z,1.44
2023-02-28T07:29:17.721Z,1.50
2023-02-28T07:30:17.662Z,1.50
2023-02-28T07:31:17.723Z,1.50
2023-02-28T07:32:17.706Z,1.52
2023-02-28T07:33:18.604Z,1.54
2023-02-28T07:34:17.637Z,1.58
2023-02-28T07:35:17.635Z,1.60
2023-02-28T07:36:17.579Z,1.64
2023-02-28T07:37:17.611Z,1.69
2023-02-28T07:38:17.569Z,1.65
2023-02-28T07:39:17.862Z,1.68
2023-02-28T07:40:17.545Z,1.65
2023-02-28T07:41:17.590Z,1.55
2023-02-28T07:42:17.535Z,1.50
2023-02-28T07:43:17.542Z,1.50
2023-02-28T07:44:17.530Z,1.54
2023-02-28T07:45:17.515Z,1.57
2023-02-28T07:46:17.595Z,1.61
2023-02-28T07:47:17.491Z,1.69
2023-02-28T07:48:17.505Z,1.82
2023-02-28T07:49:17.467Z,1.93
2023-02-28T07:50:17.476Z,1.93
2023-02-28T07:51:17.436Z,1.97
2023-02-28T07:52:17.455Z,2.01
2023-02-28T07:53:17.405Z,2.09
2023-02-28T07:54:17.425Z,2.13
2023-02-28T07:55:17.420Z,2.16
2023-02-28T07:56:17.439Z,2.12
2023-02-28T07:57:17.387Z,2.16
2023-02-28T07:58:17.383Z,2.15
2023-02-28T07:59:17.392Z,2.15
2023-02-28T08:00:17.423Z,2.16
2023-02-28T08:01:17.344Z,2.09
2023-02-28T08:02:17.366Z,2.08
2023-02-28T08:03:17.310Z,2.09
2023-02-28T08:04:17.348Z,2.16
2023-02-28T08:05:18.804Z,2.28
2023-02-28T08:06:17.302Z,2.44
2023-02-28T08:07:17.277Z,2.51
2023-02-28T08:08:17.272Z,2.52
2023-02-28T08:09:17.256Z,2.55
2023-02-28T08:10:17.266Z,2.63
2023-02-28T08:11:17.226Z,2.63
2023-02-28T08:12:17.248Z,2.66
2023-02-28T08:13:17.195Z,2.55
2023-02-28T08:14:17.205Z,2.51
2023-02-28T08:15:17.179Z,2.49
2023-02-28T08:16:17.250Z,2.52
2023-02-28T08:17:17.142Z,2.51
2023-02-28T08:18:17.178Z,2.63
2023-02-28T08:19:17.127Z,2.77
2023-02-28T08:20:17.131Z,2.87
2023-02-28T08:21:17.135Z,2.88
2023-02-28T08:22:17.117Z,2.91
2023-02-28T08:23:17.101Z,2.97
2023-02-28T08:24:17.107Z,3.00
2023-02-28T08:25:17.055Z,3.03
2023-02-28T08:26:17.106Z,3.10
2023-02-28T08:27:17.035Z,3.15
2023-02-28T08:28:17.072Z,3.21
2023-02-28T08:29:17.020Z,3.24
2023-02-28T08:30:17.045Z,3.30
2023-02-28T08:31:17.005Z,3.33
2023-02-28T08:32:28.914Z,3.31
2023-02-28T08:33:18.012Z,3.30
2023-02-28T08:34:16.996Z,3.33
2023-02-28T08:35:16.960Z,3.31
2023-02-28T08:36:17.346Z,3.36
2023-02-28T08:37:16.943Z,3.42
2023-02-28T08:38:16.962Z,3.31
2023-02-28T08:39:16.915Z,3.15
2023-02-28T08:40:16.923Z,3.18
2023-02-28T08:41:16.906Z,3.24
2023-02-28T08:42:16.900Z,3.21
2023-02-28T08:43:16.897Z,3.20
2023-02-28T08:44:16.885Z,3.23
2023-02-28T08:45:16.848Z,3.25
2023-02-28T08:46:16.976Z,3.31
2023-02-28T08:47:16.840Z,3.36
2023-02-28T08:48:19.517Z,3.44
2023-02-28T08:49:16.810Z,3.53
2023-02-28T08:50:16.818Z,3.61
2023-02-28T08:51:16.834Z,3.67
2023-02-28T08:52:16.795Z,3.72
2023-02-28T08:53:16.795Z,3.71
2023-02-28T08:54:16.755Z,3.78
2023-02-28T08:55:16.756Z,3.80
2023-02-28T08:56:16.756Z,3.86
2023-02-28T08:57:16.708Z,3.86
2023-02-28T08:58:16.735Z,3.78
2023-02-28T08:59:16.683Z,3.61
2023-02-28T09:00:16.692Z,3.58
2023-02-28T09:01:16.730Z,3.58
2023-02-28T09:02:16.687Z,3.50
2023-02-28T09:03:16.637Z,3.54
2023-02-28T09:04:19.815Z,3.64
2023-02-28T09:05:16.884Z,3.72
2023-02-28T09:06:16.645Z,3.79
2023-02-28T09:07:16.605Z,3.85
2023-02-28T09:08:16.617Z,3.82
2023-02-28T09:09:16.592Z,3.80
2023-02-28T09:10:17.599Z,3.83
2023-02-28T09:11:16.568Z,3.82
2023-02-28T09:12:16.587Z,3.85
2023-02-28T09:13:16.523Z,3.89
2023-02-28T09:14:16.561Z,3.89
2023-02-28T09:15:16.532Z,3.92
2023-02-28T09:16:16.542Z,3.89
2023-02-28T09:17:16.488Z,3.89
2023-02-28T09:18:16.515Z,3.90
2023-02-28T09:19:16.480Z,3.90
2023-02-28T09:20:16.474Z,3.98
2023-02-28T09:21:16.470Z,4.06
2023-02-28T09:22:16.454Z,4.04
2023-02-28T09:23:16.423Z,4.08
2023-02-28T09:24:16.440Z,4.10
2023-02-28T09:25:16.417Z,4.16
2023-02-28T09:26:16.431Z,4.18
2023-02-28T09:27:16.401Z,4.15
2023-02-28T09:28:16.406Z,4.10
2023-02-28T09:29:16.359Z,4.00
2023-02-28T09:30:16.409Z,3.86
2023-02-28T09:31:16.541Z,3.94
2023-02-28T09:32:16.399Z,4.06
2023-02-28T09:33:16.333Z,4.12
2023-02-28T09:34:16.368Z,4.14
2023-02-28T09:35:16.315Z,4.12
2023-02-28T09:36:16.377Z,4.14
2023-02-28T09:37:16.274Z,4.15
2023-02-28T09:38:16.277Z,4.12
2023-02-28T09:39:16.287Z,4.08
2023-02-28T09:40:16.281Z,4.08
2023-02-28T09:41:16.228Z,4.08
2023-02-28T09:42:16.272Z,4.10
2023-02-28T09:43:16.223Z,4.10
2023-02-28T09:44:16.220Z,4.06
2023-02-28T09:45:16.189Z,4.10
2023-02-28T09:46:16.268Z,4.03
2023-02-28T09:47:16.176Z,4.07
2023-02-28T09:48:16.174Z,4.00
2023-02-28T09:49:16.184Z,3.94
2023-02-28T09:50:16.151Z,3.92
2023-02-28T09:51:16.123Z,3.96
2023-02-28T09:52:16.142Z,4.03
2023-02-28T09:53:16.121Z,4.07
2023-02-28T09:54:16.119Z,4.07
2023-02-28T09:55:16.095Z,4.12
2023-02-28T09:56:16.094Z,4.18
2023-02-28T09:57:16.061Z,4.26
2023-02-28T09:58:16.063Z,4.25
2023-02-28T09:59:16.054Z,4.18
2023-02-28T10:00:16.914Z,4.24
2023-02-28T10:01:16.047Z,4.36
2023-02-28T10:02:16.032Z,4.34
2023-02-28T10:03:16.009Z,4.19
2023-02-28T10:04:16.058Z,4.24
2023-02-28T10:05:15.963Z,4.37
2023-02-28T10:06:15.980Z,4.37
2023-02-28T10:07:15.957Z,4.34
2023-02-28T10:08:15.979Z,4.28
2023-02-28T10:09:15.957Z,4.34
2023-02-28T10:10:15.968Z,4.40
2023-02-28T10:11:16.198Z,4.47
2023-02-28T10:12:15.931Z,4.55
2023-02-28T10:13:15.883Z,4.61
2023-02-28T10:14:15.898Z,4.65
2023-02-28T10:15:15.886Z,4.70
2023-02-28T10:16:15.942Z,4.73
2023-02-28T10:17:15.835Z,4.64
2023-02-28T10:18:15.888Z,4.59
2023-02-28T10:19:15.840Z,4.62
2023-02-28T10:20:15.858Z,4.64
2023-02-28T10:21:15.820Z,4.73
2023-02-28T10:22:15.817Z,4.75
2023-02-28T10:23:15.792Z,4.72
2023-02-28T10:24:15.808Z,4.79
2023-02-28T10:25:15.756Z,4.79
2023-02-28T10:26:15.764Z,4.80
2023-02-28T10:27:15.760Z,4.80
2023-02-28T10:28:15.766Z,4.86
2023-02-28T10:29:15.726Z,4.86
2023-02-28T10:30:15.713Z,4.84
2023-02-28T10:31:16.055Z,4.76
2023-02-28T10:32:15.750Z,4.67
2023-02-28T10:33:15.676Z,4.65
2023-02-28T10:34:15.693Z,4.69
2023-02-28T10:35:15.670Z,4.72
2023-02-28T10:36:15.667Z,4.72
2023-02-28T10:37:15.629Z,4.75
2023-02-28T10:38:15.629Z,4.76
2023-02-28T10:39:15.638Z,4.84
2023-02-28T10:40:15.612Z,4.80
2023-02-28T10:41:15.786Z,4.77
2023-02-28T10:42:15.598Z,4.72
2023-02-28T10:43:15.543Z,4.69
2023-02-28T10:44:15.577Z,4.75
2023-02-28T10:45:15.558Z,4.80
2023-02-28T10:46:17.041Z,4.91
2023-02-28T10:47:15.755Z,4.89
2023-02-28T10:48:15.780Z,4.95
2023-02-28T10:49:15.760Z,5.02
2023-02-28T10:50:15.514Z,5.12
2023-02-28T10:51:15.608Z,5.09
2023-02-28T10:52:15.770Z,5.09
2023-02-28T10:53:15.764Z,5.07
2023-02-28T10:54:16.432Z,5.14
2023-02-28T10:55:15.756Z,5.09
2023-02-28T10:56:15.777Z,5.07
2023-02-28T10:57:15.683Z,5.12
2023-02-28T10:58:15.772Z,5.14
2023-02-28T10:59:15.374Z,5.17
2023-02-28T11:00:15.405Z,5.17
2023-02-28T11:01:15.418Z,5.16
2023-02-28T11:02:16.618Z,5.22
2023-02-28T11:03:15.364Z,5.22
2023-02-28T11:04:15.430Z,5.23
2023-02-28T11:05:15.335Z,5.17
2023-02-28T11:06:15.334Z,5.16
2023-02-28T11:07:15.351Z,5.16
2023-02-28T11:08:15.349Z,5.07
2023-02-28T11:09:15.267Z,4.92
2023-02-28T11:10:15.270Z,4.77
2023-02-28T11:11:15.240Z,4.79
2023-02-28T11:12:15.282Z,4.76
2023-02-28T11:13:15.220Z,4.72
2023-02-28T11:14:15.253Z,4.73
2023-02-28T11:15:15.204Z,4.70
2023-02-28T11:16:15.233Z,4.62
2023-02-28T11:17:15.201Z,4.65
2023-02-28T11:18:15.184Z,4.67
2023-02-28T11:19:15.158Z,4.64
2023-02-28T11:20:15.179Z,4.61
2023-02-28T11:21:15.148Z,4.65
2023-02-28T11:22:15.166Z,4.67
2023-02-28T11:23:15.129Z,4.75
2023-02-28T11:24:15.113Z,4.76
2023-02-28T11:25:15.087Z,4.76
2023-02-28T11:26:15.108Z,4.84
2023-02-28T11:27:15.084Z,4.89
2023-02-28T11:28:15.084Z,4.95
2023-02-28T11:29:16.002Z,4.96
2023-02-28T11:30:15.069Z,4.96
2023-02-28T11:31:15.129Z,5.01
2023-02-28T11:32:16.144Z,5.01
2023-02-28T11:33:14.995Z,5.04
2023-02-28T11:34:15.007Z,5.02
2023-02-28T11:35:15.940Z,5.02
2023-02-28T11:36:15.075Z,5.02
2023-02-28T11:37:15.909Z,5.02
2023-02-28T11:38:14.975Z,5.01
2023-02-28T11:39:14.956Z,4.99
2023-02-28T11:40:14.942Z,5.02
2023-02-28T11:41:14.935Z,5.02
2023-02-28T11:42:14.926Z,4.89
2023-02-28T11:43:14.881Z,4.77
2023-02-28T11:44:14.931Z,4.80
2023-02-28T11:45:14.877Z,4.77
2023-02-28T11:46:14.929Z,4.80
2023-02-28T11:47:14.829Z,4.86
2023-02-28T11:48:14.858Z,4.92
2023-02-28T11:49:14.899Z,4.91
2023-02-28T11:50:14.852Z,4.95
2023-02-28T11:51:14.797Z,4.99
2023-02-28T11:52:14.805Z,5.02
2023-02-28T11:53:14.779Z,5.05
2023-02-28T11:54:15.768Z,5.02
2023-02-28T11:55:14.763Z,5.02
2023-02-28T11:56:14.770Z,5.01
2023-02-28T11:57:14.730Z,4.99
2023-02-28T11:58:14.746Z,4.99
2023-02-28T11:59:14.709Z,5.01
2023-02-28T12:00:14.748Z,5.05
2023-02-28T12:01:14.706Z,5.09
2023-02-28T12:02:14.690Z,5.12
2023-02-28T12:03:14.741Z,5.10
2023-02-28T12:04:14.665Z,5.12
2023-02-28T12:05:14.713Z,5.14
2023-02-28T12:06:14.646Z,5.12
2023-02-28T12:07:14.683Z,5.19
2023-02-28T12:08:14.619Z,5.22
2023-02-28T12:09:14.636Z,5.25
2023-02-28T12:10:14.642Z,5.22
2023-02-28T12:11:14.627Z,5.20
2023-02-28T12:12:14.572Z,5.25
2023-02-28T12:13:14.912Z,5.20
2023-02-28T12:14:14.554Z,5.22
2023-02-28T12:15:14.552Z,5.27
2023-02-28T12:16:14.558Z,5.31
2023-02-28T12:17:14.581Z,5.32
2023-02-28T12:18:14.513Z,5.30
2023-02-28T12:19:14.521Z,5.30
2023-02-28T12:20:14.587Z,5.31
2023-02-28T12:21:14.528Z,5.37
2023-02-28T12:22:14.484Z,5.45
2023-02-28T12:23:14.489Z,5.52
2023-02-28T12:24:14.478Z,5.55
2023-02-28T12:25:14.458Z,5.55
2023-02-28T12:26:14.442Z,5.57
2023-02-28T12:27:14.445Z,5.53
2023-02-28T12:28:14.425Z,5.50
2023-02-28T12:29:14.433Z,5.50
2023-02-28T12:30:14.461Z,5.43
2023-02-28T12:31:14.401Z,5.48
2023-02-28T12:32:14.550Z,5.48
2023-02-28T12:33:14.369Z,5.49
2023-02-28T12:34:14.344Z,5.53
2023-02-28T12:35:14.343Z,5.50
2023-02-28T12:36:14.331Z,5.45
2023-02-28T12:37:14.357Z,5.48
2023-02-28T12:38:14.553Z,5.52
2023-02-28T12:39:14.314Z,5.52
2023-02-28T12:40:14.261Z,5.50
2023-02-28T12:41:14.261Z,5.48
2023-02-28T12:42:14.239Z,5.41
2023-02-28T12:43:14.262Z,5.35
2023-02-28T12:44:14.205Z,5.35
2023-02-28T12:45:14.238Z,5.37
2023-02-28T12:46:14.383Z,5.38
2023-02-28T12:47:14.213Z,5.41
2023-02-28T12:48:14.184Z,5.46
2023-02-28T12:49:14.173Z,5.48
2023-02-28T12:50:14.177Z,5.53
2023-02-28T12:51:14.169Z,5.55
2023-02-28T12:52:14.129Z,5.50
2023-02-28T12:53:14.131Z,5.55
2023-02-28T12:54:14.106Z,5.60
2023-02-28T12:55:14.122Z,5.63
2023-02-28T12:56:14.088Z,5.66
2023-02-28T12:57:14.091Z,5.64
2023-02-28T12:58:14.066Z,5.68
2023-02-28T12:59:14.072Z,5.63
2023-02-28T13:00:14.069Z,5.66
2023-02-28T13:01:14.105Z,5.68
2023-02-28T13:02:14.020Z,5.74
2023-02-28T13:03:14.029Z,5.77
2023-02-28T13:04:14.020Z,5.83
2023-02-28T13:05:14.019Z,5.81
2023-02-28T13:06:13.969Z,5.85
2023-02-28T13:07:13.988Z,5.89
2023-02-28T13:08:14.000Z,5.85
2023-02-28T13:09:13.962Z,5.78
2023-02-28T13:10:13.923Z,5.78
2023-02-28T13:11:21.512Z,5.82
2023-02-28T13:12:14.901Z,5.83
2023-02-28T13:13:13.923Z,5.89
2023-02-28T13:14:14.127Z,5.95
2023-02-28T13:15:14.168Z,5.93
2023-02-28T13:16:13.855Z,6.00
2023-02-28T13:17:13.899Z,6.04
2023-02-28T13:18:13.836Z,6.07